Address 0xb7935cd99c6ccb8bc000142442045793dfb14c2a 3

 
Txn Hash Method
Block
From
To
Value [Txn Fee]
0x1b8595abeecd780e9b20b9eb3784aa407e098bf47ba1c1de066cac01d2a2e462Decrease Positio...34520792021-11-30 6:11:503 days 1 hr ago0xb7935cd99c6ccb8bc000142442045793dfb14c2aOUT 0xabbc5f99639c9b6bcb58544ddf04efa6802f40640 ETH0.00106192173 ETH
0x89000f18e72e397fd7f3081943f626b685c7c61190c0bb4b43c832ce1791667eIncrease Positio...34458772021-11-30 0:41:453 days 7 hrs ago0xb7935cd99c6ccb8bc000142442045793dfb14c2aOUT 0xabbc5f99639c9b6bcb58544ddf04efa6802f40643 ETH0.001060612816 ETH
0x9960b7ed014f91b438cac4c5b8893b2827f964e5439fd79857836520f13f676aCancel Decrease ...33873882021-11-27 21:16:375 days 10 hrs ago0xb7935cd99c6ccb8bc000142442045793dfb14c2aOUT 0x09f77e8a13de9a35a7231028187e9fd5db8a2acb0 ETH0.000674752973 ETH
0x3b989ffeda61752e6b7c4e8becb6541220b4f07d628e1e52e669e5abdd54601cCreate Decrease ...33758102021-11-27 9:42:265 days 22 hrs ago0xb7935cd99c6ccb8bc000142442045793dfb14c2aOUT 0x09f77e8a13de9a35a7231028187e9fd5db8a2acb0.001 ETH0.002667717453 ETH
0x55e73d11b0b947eb903a93af3ea8450013835d3440079b3012a2acb0be2c3633Approve Plugin33757912021-11-27 9:41:005 days 22 hrs ago0xb7935cd99c6ccb8bc000142442045793dfb14c2aOUT 0xabbc5f99639c9b6bcb58544ddf04efa6802f40640 ETH0.000973795452 ETH
0x39fc94307d1746bbe590d2ebc07158d48e1299e9577312a8bb8f836831aca6fdIncrease Positio...33497942021-11-26 9:14:436 days 22 hrs ago0xb7935cd99c6ccb8bc000142442045793dfb14c2aOUT 0xabbc5f99639c9b6bcb58544ddf04efa6802f406435 ETH0.002297405567 ETH
0xb7fb8ac0f868ac11161de7b2b7201d3045756eba491299810d2a4cee196dd50c0x679b6ded33236132021-11-25 12:27:417 days 19 hrs ago0xb7935cd99c6ccb8bc000142442045793dfb14c2aOUT0x000000000000000000000000000000000000006e19.970369633739401 ETH0.000000114445 ETH
0xb293e42b6447dc2c96ad8964c800ebe8c6c661af7fd334d45601d1e4490de027Mass Harvest33231422021-11-25 12:08:177 days 19 hrs ago0xb7935cd99c6ccb8bc000142442045793dfb14c2aOUT 0x99cf05461dd5f94761d4fae6a2abda47a93451f50 ETH0.000917013288 ETH
0x8ea0dc229ac5a03661a4eef3c8bd2904cacd8bd87a4827d24acb57486794b874Redeem ETH33231232021-11-25 12:07:097 days 19 hrs ago0xb7935cd99c6ccb8bc000142442045793dfb14c2aOUT 0x5475aed9d11beaa822e122c36acdfa0da2eb086f0 ETH0.001096825451 ETH
0x977e530234d2111abbb4faf38dc317e96c760d86b829cda93620fd6b562260f9Deleverage33230932021-11-25 12:05:377 days 19 hrs ago0xb7935cd99c6ccb8bc000142442045793dfb14c2aOUT 0x5475aed9d11beaa822e122c36acdfa0da2eb086f0 ETH0.001653309434 ETH
0xc30971a32d38a54be0d4053af390eb309379e772ee7c50b403a158d315792dc00x85a32c0333230432021-11-25 12:02:277 days 19 hrs ago0xb7935cd99c6ccb8bc000142442045793dfb14c2aOUT0xb309bf4e2747b885d8c3ee2e078e6eaadfcdab830 ETH0.001429691172 ETH
0x29815356e1abbe33bdad1c18fef5d87cb42312ddd864726d793fa7dd56011d620xa442c8be33230352021-11-25 12:02:277 days 19 hrs ago0xb7935cd99c6ccb8bc000142442045793dfb14c2aOUT0xf7ca7384cc6619866749955065f17bedd3ed80bc0 ETH0.001072755955 ETH
0x0f6879a9db15bbbfc5f7b4db37b09c159a6076792eb791de7991a3d4e1c75ec8Decrease Positio...33229462021-11-25 11:59:197 days 19 hrs ago0xb7935cd99c6ccb8bc000142442045793dfb14c2aOUT 0xabbc5f99639c9b6bcb58544ddf04efa6802f40640 ETH0.001045377565 ETH
0x1cdaac7cbdb36df6a03a6ca4006492a28d03aff381740303434147290ca07880Mass Harvest33147152021-11-25 4:35:528 days 3 hrs ago0xb7935cd99c6ccb8bc000142442045793dfb14c2aOUT 0x99cf05461dd5f94761d4fae6a2abda47a93451f50 ETH0.001172849103 ETH
0x7546e70a73db7198d41d102fded58cc4e3d1e9fcd550fd8c18cd4929890ee206Mint ETH32634502021-11-23 7:32:4810 days 19 mins ago0xb7935cd99c6ccb8bc000142442045793dfb14c2aOUT 0x5475aed9d11beaa822e122c36acdfa0da2eb086f0.25 ETH0.001126535228 ETH
0x8757d2d036cdb1263645e0a2e54cf9d48883f1ccb3f278deab73f1cc44c20a9aLeverage32633502021-11-23 7:26:4010 days 25 mins ago0xb7935cd99c6ccb8bc000142442045793dfb14c2aOUT 0x5475aed9d11beaa822e122c36acdfa0da2eb086f0 ETH0.003893795169 ETH
0xf10831ccc5bd269b4bbf0e5843248504cdde6a6ed2c29e22ae49af61b76ff48eMint Collateral32632752021-11-23 7:23:5010 days 28 mins ago0xb7935cd99c6ccb8bc000142442045793dfb14c2aOUT 0x5475aed9d11beaa822e122c36acdfa0da2eb086f0 ETH0.001608240416 ETH
0xa743af65ef63ff3348fce88ef1277b86aa7b90a8cd8439632598cb083a49e9b1Exit32632352021-11-23 7:22:3510 days 29 mins ago0xb7935cd99c6ccb8bc000142442045793dfb14c2aOUT0xd253c427f0655b5e731a49f2c5623679ea4b50a60 ETH0.001750473091 ETH
0x038aededa05248f845e965e6f3c3610658371c3ec69d9f519b21ac2b8148ba49Stake32625702021-11-23 6:49:5010 days 1 hr ago0xb7935cd99c6ccb8bc000142442045793dfb14c2aOUT0xd253c427f0655b5e731a49f2c5623679ea4b50a60 ETH0.001273590864 ETH
0x2b867a91719f949bea30c7dd18960b2c68cb47236c62f40fb24ac660e9f928c1Approve32625672021-11-23 6:49:5010 days 1 hr ago0xb7935cd99c6ccb8bc000142442045793dfb14c2aOUT0x19c34e4c477cfe8aa5db564ec2707905409fbe4c0 ETH0.001120651525 ETH
0x50ba9df862515a12ad8b114d8a689ea431bd952a9cb54772dcd41335a71ed6a3Add Liquidity32624952021-11-23 6:45:2410 days 1 hr ago0xb7935cd99c6ccb8bc000142442045793dfb14c2aOUT 0x530476d5583724a89c8841eb6da76e7af4c0f17e0 ETH0.001550754334 ETH
0x748afcdb3f63826fd44cff92109fed5d41745b643a665c0440a9ebc094813684Approve32624812021-11-23 6:45:2410 days 1 hr ago0xb7935cd99c6ccb8bc000142442045793dfb14c2aOUT 0xda10009cbd5d07dd0cecc66161fc93d7c9000da10 ETH0.001115836216 ETH
0x1004f09dd916eb7c0882501628d55dd3ca548e18a5136cd4e6ceafc11425652cApprove32624772021-11-23 6:45:2410 days 1 hr ago0xb7935cd99c6ccb8bc000142442045793dfb14c2aOUT 0x82af49447d8a07e3bd95bd0d56f35241523fbab10 ETH0.001119760062 ETH
0xf06d7f85cf3c1b61b67569a0b064f1d036a0f11ba5d544281961001b5675beb4Deposit32624422021-11-23 6:43:4310 days 1 hr ago0xb7935cd99c6ccb8bc000142442045793dfb14c2aOUT 0x82af49447d8a07e3bd95bd0d56f35241523fbab11 ETH0.001004573026 ETH
0x5e78ddef5f489765d83fed00ab47c54f60d749189bbe8f2d68c526f2911d6b640xa442c8be32620622021-11-23 6:22:3710 days 1 hr ago0xb7935cd99c6ccb8bc000142442045793dfb14c2aOUT0xf7ca7384cc6619866749955065f17bedd3ed80bc0 ETH0.001860475603 ETH
[ Download CSV Export 
Parent Txn Hash Block From To Value
Loading

Contract Name:
0 ETH

Compiler Version
0

Optimization Enabled:
0 ETH

Other Settings:
-NA-
Block Transaction Gas Used Reward
Age Block Fee Address BC Fee Address Voting Power Jailed Incoming
Block Uncle Number Difficulty Gas Used Reward
Loading
Loading
Make sure to use the "Vote Down" button for any spammy posts, and the "Vote Up" for interesting conversations.